Time;durP1;ratioP1;P1;durP2;ratioP2;P2;SDS_P1;SDS_P2;PMS_P1;PMS_P2;Temp;Humidity;BMP_temperature;BMP_pressure;BME280_temperature;BME280_humidity;BME280_pressure;Samples;Min_cycle;Max_cycle;Signal;HPM_P1;HPM_P2
2022/12/28 00:01:17;;;;;;;5.43;3.60;;;5.20;99.90;;;;;;5093498;28;20105;-78
2022/12/28 00:03:43;;;;;;;5.68;3.58;;;5.10;99.90;;;;;;5092767;28;20055;-78
2022/12/28 00:06:10;;;;;;;8.40;4.07;;;5.10;99.90;;;;;;5093676;28;20036;-78
2022/12/28 00:08:35;;;;;;;5.20;3.30;;;5.10;99.90;;;;;;5093793;28;20040;-78
2022/12/28 00:11:04;;;;;;;11.10;4.35;;;5.10;99.90;;;;;;5093777;28;20391;-78
2022/12/28 00:13:31;;;;;;;7.05;3.90;;;5.50;99.90;;;;;;5092682;28;20127;-78
2022/12/28 00:15:57;;;;;;;9.25;4.05;;;5.10;99.90;;;;;;5093503;28;20040;-78
2022/12/28 00:18:23;;;;;;;8.55;3.95;;;5.00;99.90;;;;;;5093691;28;20040;-77
2022/12/28 00:20:59;;;;;;;16.27;4.30;;;5.00;99.90;;;;;;5093591;28;20127;-77
2022/12/28 00:23:25;;;;;;;9.55;4.60;;;5.00;99.90;;;;;;5093574;28;20472;-78
2022/12/28 00:25:51;;;;;;;12.18;5.00;;;5.00;99.90;;;;;;5093397;28;20090;-78
2022/12/28 00:28:16;;;;;;;5.68;3.97;;;5.70;99.90;;;;;;5092660;28;20044;-78
2022/12/28 00:30:42;;;;;;;7.90;3.80;;;5.00;99.90;;;;;;5093491;28;20036;-78
2022/12/28 00:33:07;;;;;;;8.32;3.88;;;5.00;99.90;;;;;;5093558;28;20145;-78
2022/12/28 00:35:33;;;;;;;9.10;4.43;;;5.00;99.90;;;;;;5093287;28;20480;-78
2022/12/28 00:37:59;;;;;;;7.20;4.07;;;5.20;99.90;;;;;;5093535;28;20051;-78
2022/12/28 00:40:24;;;;;;;7.65;4.20;;;5.00;99.90;;;;;;5093403;28;20048;-78
2022/12/28 00:42:50;;;;;;;14.73;4.43;;;5.00;99.90;;;;;;5093653;28;20079;-77
2022/12/28 00:45:16;;;;;;;9.30;3.72;;;5.00;99.90;;;;;;5096574;28;20483;-78
2022/12/28 00:47:42;;;;;;;7.10;4.10;;;5.00;99.90;;;;;;5097013;28;20510;-77
2022/12/28 00:50:08;;;;;;;12.68;4.50;;;5.00;99.90;;;;;;5097230;28;20040;-78
2022/12/28 00:52:33;;;;;;;8.82;4.15;;;5.00;99.90;;;;;;5097156;28;20476;-78
2022/12/28 00:54:59;;;;;;;11.40;4.20;;;5.00;99.90;;;;;;5097209;28;20051;-77
2022/12/28 00:57:25;;;;;;;8.50;4.07;;;6.00;99.90;;;;;;5096831;28;20105;-78
2022/12/28 00:59:51;;;;;;;7.75;4.72;;;5.00;99.90;;;;;;5097307;28;20046;-77
2022/12/28 01:02:17;;;;;;;11.77;4.78;;;5.00;99.90;;;;;;5096745;28;20134;-77
2022/12/28 01:04:42;;;;;;;9.13;5.03;;;5.00;99.90;;;;;;5096940;28;20127;-78
2022/12/28 01:07:08;;;;;;;11.63;4.63;;;5.00;99.90;;;;;;5097174;28;20098;-78
2022/12/28 01:09:33;;;;;;;9.60;3.97;;;5.50;99.90;;;;;;5096470;28;20044;-77
2022/12/28 01:11:59;;;;;;;9.05;4.60;;;4.90;99.90;;;;;;5096902;28;20079;-77
2022/12/28 01:14:25;;;;;;;7.53;4.75;;;5.00;99.90;;;;;;5096815;28;20044;-77
2022/12/28 01:16:50;;;;;;;8.13;4.40;;;5.00;99.90;;;;;;5096596;28;20419;-77
2022/12/28 01:19:20;;;;;;;11.70;4.85;;;6.00;99.90;;;;;;5096685;28;20040;-77
2022/12/28 01:21:48;;;;;;;8.65;4.60;;;5.00;99.90;;;;;;5096582;28;20127;-77
2022/12/28 01:24:14;;;;;;;7.35;4.40;;;5.00;99.90;;;;;;5096637;28;20070;-77
2022/12/28 01:26:40;;;;;;;12.05;4.88;;;5.00;99.90;;;;;;5096465;28;20051;-78
2022/12/28 01:29:06;;;;;;;9.40;5.15;;;5.00;99.90;;;;;;5096541;28;20039;-78
2022/12/28 01:31:32;;;;;;;8.20;4.72;;;6.00;99.90;;;;;;5096569;28;20080;-78
2022/12/28 01:33:58;;;;;;;9.48;5.00;;;5.10;99.90;;;;;;5096359;28;20040;-78
2022/12/28 01:36:30;;;;;;;12.10;5.65;;;5.00;99.90;;;;;;5096405;28;20108;-77
2022/12/28 01:39:02;;;;;;;15.07;5.20;;;5.00;99.90;;;;;;5096413;28;20054;-77
2022/12/28 01:41:29;;;;;;;10.90;5.10;;;5.10;99.90;;;;;;5096332;28;20373;-78
2022/12/28 01:43:54;;;;;;;9.80;4.47;;;5.10;99.90;;;;;;5096409;28;20401;-77
2022/12/28 01:46:27;;;;;;;13.70;5.05;;;5.10;99.90;;;;;;5096203;28;20044;-77
2022/12/28 01:49:01;;;;;;;8.73;4.75;;;5.10;99.90;;;;;;5096230;28;20040;-77
2022/12/28 01:51:36;;;;;;;9.35;4.88;;;5.10;99.90;;;;;;5096043;28;20040;-77
2022/12/28 01:54:03;;;;;;;6.13;4.43;;;5.10;99.90;;;;;;5096117;28;20047;-78
2022/12/28 01:56:28;;;;;;;;;;;5.10;99.90;;;;;;5096036;28;20058;-78
2022/12/28 01:58:55;;;;;;;7.97;4.68;;;5.10;99.90;;;;;;5095913;28;19920;-77
2022/12/28 02:01:21;;;;;;;12.63;5.32;;;5.10;99.90;;;;;;5095915;28;20452;-78
2022/12/28 02:03:47;;;;;;;12.98;4.72;;;5.10;99.90;;;;;;5095962;28;20106;-78
2022/12/28 02:06:12;;;;;;;8.95;4.63;;;5.20;99.90;;;;;;5095842;28;20090;-77
2022/12/28 02:09:00;;;;;;;9.25;4.43;;;5.20;99.90;;;;;;5095788;28;20127;-78
2022/12/28 02:11:26;;;;;;;8.27;4.32;;;5.20;99.90;;;;;;5095770;28;20039;-78
2022/12/28 02:13:52;;;;;;;8.95;4.78;;;5.20;99.90;;;;;;5095652;28;20488;-78
2022/12/28 02:16:18;;;;;;;10.63;4.85;;;5.20;99.90;;;;;;5095666;28;20490;-78
2022/12/28 02:18:46;;;;;;;8.45;4.60;;;5.30;99.90;;;;;;5095862;28;20051;-77
2022/12/28 02:21:29;;;;;;;10.55;4.57;;;5.30;99.90;;;;;;5095207;28;20476;-77
2022/12/28 02:24:25;;;;;;;13.50;4.55;;;5.30;99.90;;;;;;5095599;28;20462;-78
2022/12/28 02:27:13;;;;;;;9.73;4.57;;;5.30;99.90;;;;;;5095436;28;20050;-77
2022/12/28 02:29:59;;;;;;;7.47;4.15;;;5.30;99.90;;;;;;5095655;28;20044;-77
2022/12/28 02:32:54;;;;;;;6.80;4.47;;;5.40;99.90;;;;;;5095322;28;20055;-78
2022/12/28 02:35:29;;;;;;;7.43;4.57;;;5.40;99.90;;;;;;5095257;28;20052;-78
2022/12/28 02:38:30;;;;;;;12.73;4.90;;;5.30;99.90;;;;;;5095216;28;20071;-78
2022/12/28 02:41:03;;;;;;;11.10;4.75;;;5.40;99.90;;;;;;5086354;28;20087;-77
2022/12/28 02:43:31;;;;;;;9.63;5.07;;;5.40;99.90;;;;;;5095372;28;20076;-77
2022/12/28 02:51:51;;;;;;;7.93;4.88;;;5.40;99.90;;;;;;5094582;28;20563;-78
2022/12/28 02:57:18;;;;;;;10.63;5.78;;;5.50;99.90;;;;;;5094770;28;20431;-78
2022/12/28 02:59:51;;;;;;;11.48;5.60;;;5.50;99.90;;;;;;5094486;28;20055;-78
2022/12/28 03:02:33;;;;;;;10.05;5.40;;;5.50;99.90;;;;;;5094985;28;20043;-78
2022/12/28 03:08:13;;;;;;;13.50;5.47;;;5.50;99.90;;;;;;5094642;28;20048;-78
2022/12/28 03:08:18;;;;;;;12.45;6.03;;;5.50;99.90;;;;;;5093538;28;20044;-78
2022/12/28 03:11:06;;;;;;;13.93;5.38;;;5.50;99.90;;;;;;5094677;28;20154;-78
2022/12/28 03:13:44;;;;;;;7.60;5.50;;;5.50;99.90;;;;;;5094575;28;20055;-77
2022/12/28 03:16:21;;;;;;;9.23;6.00;;;5.50;99.90;;;;;;5094383;28;20667;-77
2022/12/28 03:32:51;;;;;;;9.48;6.00;;;5.60;99.90;;;;;;5094074;28;20044;-77
2022/12/28 03:35:20;;;;;;;12.38;6.43;;;5.60;99.90;;;;;;5093989;28;20039;-78
2022/12/28 03:37:55;;;;;;;12.93;6.38;;;5.80;99.90;;;;;;5094088;28;20086;-78
2022/12/28 03:40:46;;;;;;;15.52;7.07;;;5.80;99.90;;;;;;5094870;28;20452;-78
2022/12/28 03:43:41;;;;;;;14.63;6.28;;;5.70;99.90;;;;;;5094071;28;20174;-78
2022/12/28 03:46:15;;;;;;;13.65;6.53;;;6.70;99.90;;;;;;5094492;28;20044;-78
2022/12/28 03:48:42;;;;;;;15.20;6.53;;;5.70;99.90;;;;;;5094621;28;20040;-78
2022/12/28 03:51:10;;;;;;;12.20;6.63;;;5.70;99.90;;;;;;5093933;28;20032;-77
2022/12/28 03:53:40;;;;;;;13.30;6.00;;;5.80;99.90;;;;;;5093896;28;20481;-78
2022/12/28 03:56:13;;;;;;;9.25;6.18;;;5.80;99.90;;;;;;5093886;28;20050;-78
2022/12/28 03:58:39;;;;;;;12.82;6.50;;;5.80;99.90;;;;;;5093872;28;20051;-78
2022/12/28 04:01:05;;;;;;;11.00;6.35;;;5.80;99.90;;;;;;5092486;28;20055;-77
2022/12/28 04:03:32;;;;;;;9.55;6.28;;;5.80;99.90;;;;;;5093900;28;20472;-78
2022/12/28 04:05:58;;;;;;;9.25;6.55;;;6.60;99.90;;;;;;5093756;28;20389;-78
2022/12/28 04:08:23;;;;;;;8.50;5.43;;;5.90;99.90;;;;;;5093751;28;20126;-78
2022/12/28 04:10:49;;;;;;;11.57;5.90;;;5.90;99.90;;;;;;5093641;28;20044;-78
2022/12/28 04:13:15;;;;;;;8.45;5.68;;;5.90;99.90;;;;;;5093717;28;20044;-78
2022/12/28 04:15:40;;;;;;;11.88;5.63;;;5.90;99.90;;;;;;5093777;28;20519;-77
2022/12/28 04:18:06;;;;;;;12.57;5.88;;;6.00;99.90;;;;;;5095393;28;20048;-78
2022/12/28 04:20:31;;;;;;;11.63;5.65;;;5.90;99.90;;;;;;5097841;28;20043;-79
2022/12/28 04:22:57;;;;;;;14.27;5.82;;;6.00;99.90;;;;;;5097508;28;20043;-78
2022/12/28 04:25:23;;;;;;;9.55;5.55;;;5.90;99.90;;;;;;5097852;28;20044;-77
2022/12/28 04:27:48;;;;;;;13.10;6.38;;;6.00;99.90;;;;;;5098220;28;20130;-78
2022/12/28 04:30:14;;;;;;;9.27;6.05;;;6.00;99.90;;;;;;5097757;28;20536;-78
2022/12/28 04:32:39;;;;;;;8.23;5.05;;;6.80;99.90;;;;;;5097582;28;20032;-78
2022/12/28 04:35:05;;;;;;;8.00;5.18;;;6.00;99.90;;;;;;5096403;28;20051;-78
2022/12/28 04:37:31;;;;;;;8.45;5.28;;;6.00;99.90;;;;;;5097546;28;20051;-78
2022/12/28 04:39:56;;;;;;;8.25;4.55;;;6.00;99.90;;;;;;5097501;28;20074;-78
2022/12/28 04:42:22;;;;;;;12.43;7.00;;;6.70;99.90;;;;;;5097401;28;20525;-78
2022/12/28 04:44:48;;;;;;;9.97;5.83;;;6.00;99.90;;;;;;5097405;28;20089;-78
2022/12/28 04:47:13;;;;;;;8.15;5.82;;;6.00;99.90;;;;;;5097399;28;20054;-79
2022/12/28 04:49:39;;;;;;;8.00;5.43;;;6.10;99.90;;;;;;5097536;28;20122;-78
2022/12/28 04:52:05;;;;;;;9.20;5.40;;;6.20;99.90;;;;;;5097296;28;20400;-78
2022/12/28 04:54:30;;;;;;;8.43;5.07;;;6.10;99.90;;;;;;5097246;28;20040;-78
2022/12/28 04:56:56;;;;;;;8.95;5.80;;;6.10;99.90;;;;;;5095962;28;20044;-79
2022/12/28 04:59:21;;;;;;;9.38;5.10;;;6.10;99.90;;;;;;5096812;28;20415;-78
2022/12/28 05:01:47;;;;;;;7.65;5.40;;;6.50;99.90;;;;;;5097079;28;20139;-79
2022/12/28 05:04:12;;;;;;;8.68;5.32;;;6.10;99.90;;;;;;5097083;28;20051;-79
2022/12/28 05:06:38;;;;;;;8.63;5.05;;;6.20;99.90;;;;;;5097050;28;20043;-78
2022/12/28 05:09:04;;;;;;;8.48;5.28;;;6.20;99.90;;;;;;5097027;28;20112;-78
2022/12/28 05:11:30;;;;;;;8.68;5.35;;;7.10;99.90;;;;;;5096848;28;20434;-78
2022/12/28 05:13:57;;;;;;;6.65;4.95;;;6.70;99.90;;;;;;5096858;28;20079;-78
2022/12/28 05:16:25;;;;;;;8.07;5.47;;;6.20;99.90;;;;;;5096837;28;20463;-78
2022/12/28 05:18:50;;;;;;;7.20;5.07;;;6.40;99.90;;;;;;5096744;28;20051;-78
2022/12/28 05:21:19;;;;;;;7.20;5.30;;;6.20;99.90;;;;;;5096649;28;20044;-79
2022/12/28 05:23:46;;;;;;;7.30;5.68;;;6.30;99.90;;;;;;5096976;28;20048;-78
2022/12/28 05:26:14;;;;;;;9.27;5.57;;;6.30;99.90;;;;;;5096618;28;20035;-78
2022/12/28 05:28:40;;;;;;;6.40;5.38;;;7.20;99.90;;;;;;5096580;28;20077;-78
2022/12/28 05:31:10;;;;;;;7.43;5.65;;;6.60;99.90;;;;;;5095784;28;20086;-78
2022/12/28 05:33:37;;;;;;;7.78;5.50;;;6.30;99.90;;;;;;5096477;28;20070;-78
2022/12/28 05:36:07;;;;;;;7.03;5.50;;;6.40;99.90;;;;;;5096468;28;20377;-78
2022/12/28 05:38:34;;;;;;;9.07;6.80;;;6.40;99.90;;;;;;5096338;28;20773;-78
2022/12/28 05:41:17;;;;;;;10.13;9.10;;;6.40;99.90;;;;;;5096379;28;20059;-78
2022/12/28 05:43:43;;;;;;;8.52;5.90;;;6.40;99.90;;;;;;5096341;28;20098;-78
2022/12/28 05:46:11;;;;;;;9.23;5.60;;;6.80;99.90;;;;;;5096169;28;20048;-78
2022/12/28 05:48:38;;;;;;;11.07;6.15;;;6.50;99.90;;;;;;5096142;28;20044;-78
2022/12/28 05:51:08;;;;;;;;;;;6.50;99.90;;;;;;5096611;28;20066;-78
2022/12/28 05:53:35;;;;;;;8.05;6.00;;;6.50;99.90;;;;;;5096538;28;19919;-77
2022/12/28 05:56:16;;;;;;;8.63;6.53;;;6.60;99.90;;;;;;5096106;28;20131;-84
2022/12/28 05:58:43;;;;;;;11.13;6.22;;;7.50;99.90;;;;;;5096026;28;20048;-79
2022/12/28 06:01:14;;;;;;;9.57;6.75;;;6.60;99.90;;;;;;5095868;28;20060;-79
2022/12/28 06:03:41;;;;;;;10.60;6.25;;;6.70;99.90;;;;;;5095897;28;20047;-78
2022/12/28 06:06:09;;;;;;;6.85;5.45;;;6.70;99.90;;;;;;5095880;28;20048;-78
2022/12/28 06:08:39;;;;;;;8.05;6.10;;;6.70;99.90;;;;;;5076165;28;20408;-78
2022/12/28 06:11:06;;;;;;;;;;;6.70;99.90;;;;;;5075954;28;20377;-78
2022/12/28 06:13:33;;;;;;;9.75;6.80;;;6.70;99.90;;;;;;5075206;28;19927;-78
2022/12/28 06:16:03;;;;;;;7.65;5.90;;;7.30;99.90;;;;;;5075442;28;20045;-78
2022/12/28 06:18:29;;;;;;;8.02;6.07;;;6.80;99.90;;;;;;5075336;28;20044;-78
2022/12/28 06:21:01;;;;;;;9.13;6.07;;;6.80;99.90;;;;;;5075689;28;20058;-78
2022/12/28 06:23:27;;;;;;;9.85;6.68;;;6.80;99.90;;;;;;5075528;28;20132;-79
2022/12/28 06:25:52;;;;;;;9.75;6.88;;;6.80;99.90;;;;;;5075065;28;20232;-78
2022/12/28 06:28:18;;;;;;;7.75;6.30;;;6.90;99.90;;;;;;5075115;28;20064;-79
2022/12/28 06:30:43;;;;;;;9.95;6.60;;;6.90;99.90;;;;;;5075077;28;20037;-78
2022/12/28 06:33:09;;;;;;;8.73;6.50;;;6.90;99.90;;;;;;5075427;28;20049;-78
2022/12/28 06:35:39;;;;;;;10.65;6.63;;;6.90;99.90;;;;;;5074776;28;20036;-78
2022/12/28 06:38:05;;;;;;;13.05;6.80;;;6.90;99.90;;;;;;5075313;28;20055;-78
2022/12/28 06:40:30;;;;;;;8.75;6.82;;;7.00;99.90;;;;;;5074633;28;20544;-78
2022/12/28 06:42:56;;;;;;;12.00;7.03;;;6.90;99.90;;;;;;5073915;28;20101;-78
2022/12/28 06:45:22;;;;;;;8.95;6.97;;;7.00;99.90;;;;;;5074732;28;20048;-78
2022/12/28 06:47:47;;;;;;;10.50;7.32;;;7.00;99.90;;;;;;5074500;28;20044;-78
2022/12/28 06:50:13;;;;;;;9.68;7.70;;;7.00;99.90;;;;;;5074665;28;20074;-78
2022/12/28 06:52:38;;;;;;;8.98;6.72;;;7.60;99.90;;;;;;5074984;28;20071;-79
2022/12/28 06:55:04;;;;;;;10.38;6.97;;;7.10;99.90;;;;;;5074628;28;20044;-79
2022/12/28 06:57:30;;;;;;;11.57;7.85;;;7.10;99.90;;;;;;5074270;28;20075;-79
2022/12/28 06:59:55;;;;;;;10.45;7.07;;;7.30;99.90;;;;;;5074644;28;20045;-79
2022/12/28 07:02:21;;;;;;;12.88;8.65;;;7.10;99.90;;;;;;5074742;28;20077;-79
2022/12/28 07:04:47;;;;;;;10.82;7.72;;;7.10;99.90;;;;;;5074385;28;20059;-79
2022/12/28 07:07:12;;;;;;;13.77;8.10;;;7.20;99.90;;;;;;5074450;28;20053;-79
2022/12/28 07:09:38;;;;;;;10.55;7.45;;;7.30;99.90;;;;;;5074188;28;20082;-79
2022/12/28 07:12:04;;;;;;;14.20;11.77;;;7.20;99.90;;;;;;5074688;28;20090;-79
2022/12/28 07:14:31;;;;;;;13.60;11.45;;;7.20;99.90;;;;;;5074161;28;20496;-78
2022/12/28 07:16:56;;;;;;;;;;;7.20;99.90;;;;;;5074391;28;20049;-79
2022/12/28 07:19:22;;;;;;;10.23;7.18;;;7.30;99.90;;;;;;5073022;28;19927;-79
2022/12/28 07:21:48;;;;;;;11.52;9.57;;;7.30;99.90;;;;;;5073908;28;20369;-79
2022/12/28 07:24:14;;;;;;;15.60;8.80;;;8.10;99.90;;;;;;5074365;28;20045;-79
2022/12/28 07:26:39;;;;;;;11.98;7.90;;;7.30;99.90;;;;;;5074048;28;20039;-79
2022/12/28 07:29:07;;;;;;;14.23;8.93;;;7.40;99.90;;;;;;5074070;28;20133;-78
2022/12/28 07:31:35;;;;;;;11.43;8.48;;;8.20;99.90;;;;;;5073997;28;20477;-78
2022/12/28 07:34:01;;;;;;;12.95;9.00;;;7.50;99.90;;;;;;5073991;28;20040;-79
2022/12/28 07:36:29;;;;;;;14.90;9.18;;;7.50;99.90;;;;;;5073967;28;20056;-79
2022/12/28 07:38:55;;;;;;;13.13;9.82;;;7.40;99.90;;;;;;5073705;28;20487;-78
2022/12/28 07:41:26;;;;;;;13.70;8.97;;;7.40;99.90;;;;;;5073872;28;20066;-78
2022/12/28 07:43:52;;;;;;;13.57;9.15;;;7.50;99.90;;;;;;5073891;28;20631;-78
2022/12/28 07:46:26;;;;;;;14.40;9.32;;;7.50;99.90;;;;;;5073929;28;20075;-77
2022/12/28 07:48:53;;;;;;;13.70;9.15;;;7.50;99.90;;;;;;5073781;28;20135;-78
2022/12/28 07:51:25;;;;;;;17.98;10.15;;;7.50;99.90;;;;;;5073862;28;20044;-77
2022/12/28 07:53:52;;;;;;;13.77;10.20;;;7.50;99.90;;;;;;5073547;28;20435;-79
2022/12/28 07:56:19;;;;;;;13.05;9.80;;;7.90;99.90;;;;;;5073780;28;20041;-79
2022/12/28 07:58:49;;;;;;;12.80;9.23;;;7.50;99.90;;;;;;5073646;28;20044;-80
2022/12/28 08:01:16;;;;;;;13.90;10.02;;;7.60;99.90;;;;;;5073565;28;20048;-78
2022/12/28 08:03:44;;;;;;;13.43;9.20;;;7.60;99.90;;;;;;5073684;28;20068;-79
2022/12/28 08:06:13;;;;;;;14.83;9.87;;;7.80;99.90;;;;;;5073845;28;20055;-79
2022/12/28 08:08:41;;;;;;;15.48;8.88;;;7.80;99.90;;;;;;5073521;28;20287;-79
2022/12/28 08:11:10;;;;;;;13.07;10.15;;;7.80;99.90;;;;;;5073466;28;20075;-79
2022/12/28 08:13:38;;;;;;;14.10;9.93;;;8.30;99.90;;;;;;5073454;28;20062;-78
2022/12/28 08:16:04;;;;;;;13.43;9.52;;;7.80;99.90;;;;;;5073689;28;20500;-79
2022/12/28 08:18:31;;;;;;;13.65;9.57;;;7.60;99.90;;;;;;5072451;28;20041;-79
2022/12/28 08:21:01;;;;;;;15.17;9.97;;;7.60;99.90;;;;;;5073768;28;20103;-79
2022/12/28 08:23:28;;;;;;;13.80;9.73;;;8.40;99.90;;;;;;5073493;28;20384;-80
2022/12/28 08:25:53;;;;;;;13.07;9.13;;;7.70;99.90;;;;;;5073375;28;20048;-79
2022/12/28 08:28:19;;;;;;;13.00;10.27;;;7.70;99.90;;;;;;5073503;28;20040;-79
2022/12/28 08:30:44;;;;;;;14.20;9.98;;;7.70;99.90;;;;;;5073399;28;20485;-81
2022/12/28 08:33:10;;;;;;;15.05;9.02;;;7.70;99.90;;;;;;5073368;28;20039;-83
2022/12/28 08:35:36;;;;;;;12.73;8.95;;;8.30;99.90;;;;;;5073324;28;20477;-81
2022/12/28 08:38:01;;;;;;;12.48;9.10;;;7.80;99.90;;;;;;5073260;28;20048;-77
2022/12/28 08:40:28;;;;;;;13.60;8.63;;;8.00;99.90;;;;;;5073231;28;20052;-77
2022/12/28 08:43:00;;;;;;;13.07;8.07;;;8.10;99.90;;;;;;5055544;28;20370;-77
2022/12/28 08:45:26;;;;;;;11.38;8.57;;;7.80;99.90;;;;;;5073309;28;20439;-76
2022/12/28 08:47:52;;;;;;;13.00;9.65;;;7.80;99.90;;;;;;5073209;28;20040;-77
2022/12/28 08:50:18;;;;;;;12.27;9.60;;;7.80;99.90;;;;;;5073038;28;20040;-79
2022/12/28 08:52:44;;;;;;;10.95;8.85;;;8.00;99.90;;;;;;5073277;28;20041;-79
2022/12/28 08:55:09;;;;;;;14.05;9.40;;;8.20;99.90;;;;;;5073083;28;20427;-82
2022/12/28 08:57:35;;;;;;;14.38;8.48;;;8.40;99.90;;;;;;5073063;28;20435;-79
2022/12/28 09:00:02;;;;;;;12.80;8.27;;;7.80;99.90;;;;;;5073159;28;20044;-77
2022/12/28 09:02:27;;;;;;;11.85;8.52;;;7.80;99.90;;;;;;5073315;28;20056;-77
2022/12/28 09:04:53;;;;;;;10.80;7.88;;;7.90;99.90;;;;;;5073960;28;20082;-78
2022/12/28 09:07:19;;;;;;;10.63;8.35;;;7.90;99.90;;;;;;5076730;28;20049;-78
2022/12/28 09:09:44;;;;;;;13.85;12.60;;;8.10;99.90;;;;;;5076370;28;20049;-79
2022/12/28 09:12:10;;;;;;;12.23;8.07;;;7.90;99.90;;;;;;5077106;28;20380;-78
2022/12/28 09:14:36;;;;;;;14.00;12.73;;;7.90;99.90;;;;;;5076687;28;20066;-79
2022/12/28 09:17:01;;;;;;;10.68;8.10;;;7.90;99.90;;;;;;5076517;28;20040;-78
2022/12/28 09:19:27;;;;;;;13.15;8.00;;;7.90;99.90;;;;;;5076533;28;20044;-80
2022/12/28 09:21:54;;;;;;;13.52;8.10;;;7.90;99.90;;;;;;5076450;28;20040;-80
2022/12/28 09:24:20;;;;;;;11.05;8.10;;;8.00;99.90;;;;;;5076146;28;20488;-79
2022/12/28 09:26:47;;;;;;;10.93;8.02;;;8.00;99.90;;;;;;5076432;28;20040;-80
2022/12/28 09:29:13;;;;;;;10.43;8.32;;;8.00;99.90;;;;;;5081003;28;20407;-79
2022/12/28 09:31:40;;;;;;;10.95;8.40;;;8.00;99.90;;;;;;5095587;28;20040;-81
2022/12/28 09:34:11;;;;;;;11.75;8.57;;;8.00;99.90;;;;;;5094464;28;20094;-79
2022/12/28 09:36:42;;;;;;;12.50;8.70;;;8.50;99.90;;;;;;5096043;28;20043;-81
2022/12/28 09:39:19;;;;;;;12.98;8.48;;;8.10;99.90;;;;;;5096337;28;20438;-81
2022/12/28 09:41:57;;;;;;;10.65;7.75;;;8.10;99.90;;;;;;5096349;28;20047;-80
2022/12/28 09:44:47;;;;;;;9.80;7.43;;;8.10;99.90;;;;;;5096345;28;20091;-81
2022/12/28 09:47:22;;;;;;;10.77;7.82;;;8.10;99.90;;;;;;5096075;28;20048;-79
2022/12/28 09:50:07;;;;;;;11.13;8.32;;;9.00;99.90;;;;;;5096548;28;20051;-81
2022/12/28 09:52:40;;;;;;;11.48;8.60;;;8.20;99.90;;;;;;5096159;28;20048;-81
2022/12/28 09:55:13;;;;;;;14.20;8.25;;;9.10;99.90;;;;;;5096474;28;20054;-80
2022/12/28 09:57:43;;;;;;;11.55;9.00;;;8.20;99.90;;;;;;5096113;28;20054;-79
2022/12/28 10:00:24;;;;;;;13.35;8.98;;;8.20;99.90;;;;;;5095803;28;20047;-79
2022/12/28 10:03:06;;;;;;;11.07;8.68;;;8.30;99.90;;;;;;5094203;28;20047;-79
2022/12/28 10:05:32;;;;;;;12.13;8.93;;;8.30;99.90;;;;;;5095421;28;20048;-79
2022/12/28 10:07:58;;;;;;;11.95;8.20;;;8.20;99.90;;;;;;5095401;28;20488;-79
2022/12/28 10:10:25;;;;;;;11.13;8.40;;;8.30;99.90;;;;;;5094249;28;20426;-79
2022/12/28 10:12:51;;;;;;;12.75;9.07;;;8.30;99.90;;;;;;5095844;28;20036;-79
2022/12/28 10:15:17;;;;;;;12.55;8.30;;;8.30;99.90;;;;;;5095317;28;20062;-80
2022/12/28 10:17:44;;;;;;;10.27;7.35;;;8.30;99.90;;;;;;5095371;28;20492;-79
2022/12/28 10:20:16;;;;;;;11.40;7.00;;;8.40;99.90;;;;;;5095534;28;20080;-80
2022/12/28 10:22:42;;;;;;;9.00;7.10;;;8.30;99.90;;;;;;5095302;28;20044;-79
2022/12/28 10:25:17;;;;;;;10.98;7.70;;;9.20;99.90;;;;;;5094976;28;20073;-80
2022/12/28 10:27:42;;;;;;;9.15;7.03;;;8.40;99.90;;;;;;5095689;28;20048;-80
2022/12/28 10:30:16;;;;;;;13.10;7.15;;;9.20;99.90;;;;;;5110926;28;20533;-79
2022/12/28 10:32:51;;;;;;;9.32;7.47;;;8.40;99.90;;;;;;5095215;28;20559;-80
2022/12/28 10:35:27;;;;;;;10.45;6.97;;;8.40;99.90;;;;;;5094835;28;20079;-82
2022/12/28 10:38:01;;;;;;;9.70;7.07;;;8.40;99.90;;;;;;5095138;28;20056;-80
2022/12/28 10:40:29;;;;;;;9.18;6.75;;;8.40;99.90;;;;;;5094950;28;20040;-80
2022/12/28 10:42:56;;;;;;;10.60;6.72;;;8.40;99.90;;;;;;5094714;28;20048;-82
2022/12/28 10:45:35;;;;;;;7.75;6.28;;;9.10;99.90;;;;;;5094781;28;20048;-82
2022/12/28 10:48:07;;;;;;;8.82;6.47;;;8.40;99.90;;;;;;5094569;28;20043;-80
2022/12/28 10:50:53;;;;;;;8.95;6.25;;;8.50;99.90;;;;;;5095141;28;20048;-81
2022/12/28 10:53:28;;;;;;;8.00;6.20;;;8.50;99.90;;;;;;5094897;28;20040;-80
2022/12/28 10:56:27;;;;;;;8.30;5.85;;;8.50;99.90;;;;;;5094905;28;20119;-82
2022/12/28 10:58:54;;;;;;;;;;;8.60;99.90;;;;;;5091093;28;20063;-78
2022/12/28 11:01:28;;;;;;;8.85;6.22;;;8.60;99.90;;;;;;5094370;28;19927;-80
2022/12/28 11:04:15;;;;;;;7.53;5.82;;;8.60;99.90;;;;;;5094638;28;20565;-82
2022/12/28 11:07:01;;;;;;;9.37;6.37;;;8.60;99.90;;;;;;5098889;28;20048;-79
2022/12/28 11:09:32;;;;;;;7.18;5.47;;;8.60;99.90;;;;;;5095087;28;20282;-79
2022/12/28 11:12:25;;;;;;;7.20;5.45;;;8.60;99.90;;;;;;5094426;28;20044;-78
2022/12/28 11:14:51;;;;;;;6.97;5.65;;;8.60;99.90;;;;;;5094158;28;20054;-78
2022/12/28 11:17:21;;;;;;;6.80;5.95;;;8.60;99.90;;;;;;5094302;28;20044;-82
2022/12/28 11:19:50;;;;;;;6.78;5.32;;;8.60;99.90;;;;;;5094402;28;20122;-82
2022/12/28 11:22:34;;;;;;;8.07;4.93;;;8.60;99.90;;;;;;5094136;28;20044;-81
2022/12/28 11:25:01;;;;;;;6.47;5.50;;;8.80;99.90;;;;;;5094239;28;20040;-79
2022/12/28 11:27:27;;;;;;;6.32;5.03;;;8.60;99.90;;;;;;5093694;28;20059;-77
2022/12/28 11:29:54;;;;;;;6.88;5.22;;;9.20;99.90;;;;;;5091799;28;20052;-78
2022/12/28 11:32:36;;;;;;;9.20;6.13;;;8.80;99.90;;;;;;5092609;28;20085;-77
2022/12/28 11:35:03;;;;;;;7.70;6.22;;;8.60;99.90;;;;;;5093976;28;20453;-76
2022/12/28 11:37:29;;;;;;;7.00;5.07;;;8.60;99.90;;;;;;5093701;28;20047;-79
2022/12/28 11:39:54;;;;;;;5.75;4.90;;;8.60;99.90;;;;;;5093501;28;20058;-77
2022/12/28 11:42:35;;;;;;;6.45;5.20;;;8.60;99.90;;;;;;5093171;28;20040;-77
2022/12/28 11:45:03;;;;;;;5.45;4.82;;;8.70;99.90;;;;;;5093592;28;20040;-77
2022/12/28 11:47:34;;;;;;;7.85;4.88;;;8.70;99.90;;;;;;5093746;28;20044;-78
2022/12/28 11:50:35;;;;;;;7.78;4.63;;;8.70;99.90;;;;;;5093599;28;20085;-78
2022/12/28 11:53:03;;;;;;;5.85;4.82;;;8.70;99.90;;;;;;5093699;28;20059;-78
2022/12/28 11:55:47;;;;;;;6.93;4.30;;;9.30;99.90;;;;;;5093636;28;20040;-77
2022/12/28 11:58:34;;;;;;;5.22;4.50;;;8.70;99.90;;;;;;5093501;28;20223;-78
2022/12/28 12:01:03;;;;;;;4.57;4.10;;;8.70;99.90;;;;;;5093389;28;20060;-77
2022/12/28 12:03:58;;;;;;;4.53;4.13;;;9.10;99.90;;;;;;5093120;28;20067;-78
2022/12/28 12:06:41;;;;;;;8.27;4.00;;;8.80;99.90;;;;;;5038430;28;20061;-79
2022/12/28 12:09:27;;;;;;;4.40;4.00;;;8.80;99.90;;;;;;5093488;28;20047;-77
2022/12/28 12:12:29;;;;;;;6.30;4.35;;;8.70;99.90;;;;;;5093139;28;20147;-78
2022/12/28 12:15:14;;;;;;;6.10;4.13;;;8.70;99.90;;;;;;5089996;28;20144;-79
2022/12/28 12:17:44;;;;;;;4.82;4.10;;;8.80;99.90;;;;;;5093323;28;20044;-77
2022/12/28 12:20:42;;;;;;;4.88;4.38;;;8.70;99.90;;;;;;5093028;28;20036;-78
2022/12/28 12:23:23;;;;;;;4.88;4.07;;;8.70;99.90;;;;;;5093378;28;20369;-78
2022/12/28 12:25:53;;;;;;;6.28;4.18;;;8.70;99.90;;;;;;5093426;28;20101;-78
2022/12/28 12:28:30;;;;;;;5.00;4.15;;;9.30;99.90;;;;;;5092555;28;20048;-77
2022/12/28 12:30:56;;;;;;;4.90;4.20;;;8.70;99.90;;;;;;5092557;28;20052;-79
2022/12/28 12:33:28;;;;;;;4.55;3.97;;;8.70;99.90;;;;;;5092936;28;20036;-79
2022/12/28 12:36:15;;;;;;;6.10;4.35;;;8.70;99.90;;;;;;5093176;28;20044;-79
2022/12/28 12:39:07;;;;;;;5.22;4.32;;;8.70;99.90;;;;;;5093766;28;20051;-77
2022/12/28 12:42:07;;;;;;;4.18;3.78;;;8.70;99.90;;;;;;5096800;28;20055;-78
2022/12/28 12:44:55;;;;;;;7.05;3.85;;;8.70;99.90;;;;;;5097054;28;20055;-78
2022/12/28 12:47:39;;;;;;;3.97;3.33;;;8.70;99.90;;;;;;5095351;28;20048;-78
2022/12/28 12:50:36;;;;;;;4.07;3.60;;;8.70;99.90;;;;;;5097095;28;20294;-78
2022/12/28 12:53:33;;;;;;;4.82;3.63;;;8.70;99.90;;;;;;5096228;28;20510;-79
2022/12/28 12:56:16;;;;;;;3.47;3.10;;;8.70;99.90;;;;;;5096626;28;20051;-78
2022/12/28 12:59:00;;;;;;;3.72;3.13;;;8.70;99.90;;;;;;5096387;28;20059;-78
2022/12/28 13:01:54;;;;;;;5.95;3.65;;;8.70;99.90;;;;;;5096622;28;20052;-78
2022/12/28 13:04:24;;;;;;;5.45;3.63;;;8.70;99.90;;;;;;5096034;28;20052;-78
2022/12/28 13:06:58;;;;;;;4.10;3.35;;;8.70;99.90;;;;;;5096506;28;20083;-79
2022/12/28 13:09:26;;;;;;;5.50;3.88;;;8.70;99.90;;;;;;5096485;28;20466;-78
2022/12/28 13:11:53;;;;;;;4.28;3.33;;;8.70;99.90;;;;;;5096112;28;20078;-78
2022/12/28 13:14:21;;;;;;;5.53;3.20;;;8.70;99.90;;;;;;5095896;28;20468;-77
2022/12/28 13:16:50;;;;;;;3.40;2.83;;;8.70;99.90;;;;;;5094820;28;20498;-79
2022/12/28 13:19:22;;;;;;;3.40;2.75;;;8.70;99.90;;;;;;5095265;28;20040;-78
2022/12/28 13:21:49;;;;;;;4.45;3.03;;;8.70;99.90;;;;;;5094589;28;20491;-72
2022/12/28 13:24:21;;;;;;;3.65;2.60;;;9.30;99.90;;;;;;5095078;28;20032;-77
2022/12/28 13:26:46;;;;;;;6.45;2.40;;;9.50;99.90;;;;;;5094948;28;20047;-78
2022/12/28 13:29:17;;;;;;;3.10;2.58;;;8.70;99.90;;;;;;5094768;28;20044;-78
2022/12/28 13:31:48;;;;;;;3.92;2.50;;;8.70;99.90;;;;;;5094271;28;20056;-81
2022/12/28 13:34:22;;;;;;;2.53;2.33;;;8.90;99.90;;;;;;5094607;28;20539;-76